Time;durP1;ratioP1;P1;durP2;ratioP2;P2;SDS_P1;SDS_P2;PMS_P1;PMS_P2;Temp;Humidity;BMP_temperature;BMP_pressure;BME280_temperature;BME280_humidity;BME280_pressure;Samples;Min_cycle;Max_cycle;Signal;HPM_P1;HPM_P2
2022/01/01 00:00:55;;;;;;;85.57;56.60;;;;;;;;;;4788354;29;20038;-86
2022/01/01 00:03:20;;;;;;;82.35;53.05;;;;;;;;;;4803885;29;20480;-83
2022/01/01 00:05:49;;;;;;;85.07;53.10;;;;;;;;;;4785035;29;20043;-85
2022/01/01 00:18:58;;;;;;;63.50;37.30;;;;;;;;;;5104005;27;20162;-87
2022/01/01 00:21:23;;;;;;;53.42;35.35;;;;;;;;;;5081685;28;20399;-87
2022/01/01 00:23:49;;;;;;;50.60;31.55;;;;;;;;;;5090707;28;20024;-87
2022/01/01 00:26:14;;;;;;;57.70;32.83;;;;;;;;;;5087290;28;20494;-85
2022/01/01 00:28:40;;;;;;;86.38;55.15;;;;;;;;;;5095033;28;20039;-86
2022/01/01 00:31:07;;;;;;;76.65;47.45;;;;;;;;;;5089373;28;20036;-87
2022/01/01 00:33:33;;;;;;;46.33;27.88;;;;;;;;;;5091566;28;20082;-85
2022/01/01 00:36:01;;;;;;;50.75;27.38;;;;;;;;;;5089804;28;20028;-85
2022/01/01 00:38:26;;;;;;;47.47;28.08;;;;;;;;;;5089614;28;20032;-88
2022/01/01 00:40:52;;;;;;;61.65;32.03;;;;;;;;;;5082074;28;20764;-87
2022/01/01 00:43:17;;;;;;;53.58;30.92;;;;;;;;;;5090054;28;20165;-85
2022/01/01 00:45:43;;;;;;;54.05;31.88;;;;;;;;;;5077773;28;20396;-86
2022/01/01 00:48:08;;;;;;;52.53;31.67;;;;;;;;;;5091267;28;20063;-88
2022/01/01 00:50:34;;;;;;;50.90;29.98;;;;;;;;;;5088561;28;20025;-88
2022/01/01 00:52:59;;;;;;;45.05;27.83;;;;;;;;;;5093259;28;20079;-87
2022/01/01 00:55:25;;;;;;;49.03;29.15;;;;;;;;;;5087359;28;20177;-85
2022/01/01 00:57:52;;;;;;;58.20;31.63;;;;;;;;;;5089524;28;20024;-86
2022/01/01 01:00:18;;;;;;;50.35;32.85;;;;;;;;;;5091524;28;20024;-86
2022/01/01 01:02:43;;;;;;;62.28;37.85;;;;;;;;;;5087372;28;20084;-85
2022/01/01 01:05:08;;;;;;;62.05;38.45;;;;;;;;;;5089806;28;20541;-86
2022/01/01 01:07:34;;;;;;;64.38;39.53;;;;;;;;;;5082246;28;20032;-88
2022/01/01 01:09:59;;;;;;;65.05;37.47;;;;;;;;;;5081136;28;20032;-87
2022/01/01 01:12:34;;;;;;;61.08;34.35;;;;;;;;;;5090840;28;20024;-87
2022/01/01 01:14:59;;;;;;;54.80;32.85;;;;;;;;;;5084762;28;20423;-85
2022/01/01 01:17:24;;;;;;;52.83;31.00;;;;;;;;;;5081602;28;20051;-85
2022/01/01 01:19:50;;;;;;;56.72;31.73;;;;;;;;;;5070798;28;20028;-85
2022/01/01 01:22:15;;;;;;;53.28;31.63;;;;;;;;;;5066557;28;20024;-84
2022/01/01 01:24:40;;;;;;;56.75;33.33;;;;;;;;;;5073830;28;20030;-86
2022/01/01 01:27:06;;;;;;;57.72;33.00;;;;;;;;;;5067260;28;20067;-86
2022/01/01 01:29:35;;;;;;;53.90;29.70;;;;;;;;;;5070618;28;20048;-87
2022/01/01 01:32:00;;;;;;;54.08;29.20;;;;;;;;;;5069401;28;20035;-86
2022/01/01 01:34:26;;;;;;;52.35;28.35;;;;;;;;;;5070988;28;20021;-88
2022/01/01 01:36:51;;;;;;;43.38;25.67;;;;;;;;;;5067179;28;20512;-85
2022/01/01 01:39:16;;;;;;;42.35;25.00;;;;;;;;;;5064004;28;20115;-88
2022/01/01 01:41:44;;;;;;;40.10;24.67;;;;;;;;;;5072027;28;20021;-87
2022/01/01 01:44:52;;;;;;;38.58;22.48;;;;;;;;;;5071970;28;20040;-87
2022/01/01 01:47:27;;;;;;;38.22;18.85;;;;;;;;;;4983508;28;20044;-88
2022/01/01 01:49:52;;;;;;;38.33;19.08;;;;;;;;;;5071698;28;20127;-86
2022/01/01 01:52:19;;;;;;;38.42;18.95;;;;;;;;;;5065772;28;20112;-88
2022/01/01 01:54:45;;;;;;;36.75;18.45;;;;;;;;;;5067023;28;20510;-85
2022/01/01 01:57:10;;;;;;;33.33;19.13;;;;;;;;;;5065329;28;20017;-86
2022/01/01 01:59:49;;;;;;;36.33;18.33;;;;;;;;;;5065904;28;20086;-85
2022/01/01 02:02:15;;;;;;;36.10;19.20;;;;;;;;;;5065472;28;20036;-87
2022/01/01 02:04:40;;;;;;;39.08;18.40;;;;;;;;;;5064440;28;20116;-86
2022/01/01 02:07:09;;;;;;;35.25;19.70;;;;;;;;;;5066546;28;20047;-87
2022/01/01 02:09:35;;;;;;;41.92;19.25;;;;;;;;;;5068569;28;20035;-88
2022/01/01 02:12:06;;;;;;;39.17;19.35;;;;;;;;;;5063381;28;20028;-85
2022/01/01 02:15:10;;;;;;;36.83;18.10;;;;;;;;;;5063804;28;20392;-87
2022/01/01 02:17:35;;;;;;;31.33;16.50;;;;;;;;;;5068369;28;20475;-85
2022/01/01 02:20:15;;;;;;;32.47;17.08;;;;;;;;;;5064182;28;20059;-87
2022/01/01 02:22:50;;;;;;;32.67;16.95;;;;;;;;;;5067832;28;20111;-85
2022/01/01 02:25:17;;;;;;;28.95;15.95;;;;;;;;;;5068051;28;20036;-85
2022/01/01 02:27:42;;;;;;;30.70;16.15;;;;;;;;;;5058051;28;20116;-88
2022/01/01 02:30:11;;;;;;;32.97;16.23;;;;;;;;;;5067209;28;20115;-87
2022/01/01 02:32:36;;;;;;;28.40;14.55;;;;;;;;;;5066649;28;20043;-85
2022/01/01 02:35:06;;;;;;;31.25;15.38;;;;;;;;;;5067441;28;20040;-85
2022/01/01 02:37:34;;;;;;;30.40;15.13;;;;;;;;;;5062148;28;20032;-87
2022/01/01 02:39:59;;;;;;;37.95;15.70;;;;;;;;;;5065874;28;20024;-87
2022/01/01 02:42:25;;;;;;;26.73;14.93;;;;;;;;;;5062829;28;20373;-87
2022/01/01 02:44:53;;;;;;;31.80;15.07;;;;;;;;;;5064335;28;20024;-85
2022/01/01 02:47:18;;;;;;;29.63;14.85;;;;;;;;;;5066342;28;20127;-88
2022/01/01 02:49:43;;;;;;;31.42;14.43;;;;;;;;;;5066277;28;20111;-87
2022/01/01 02:52:10;;;;;;;30.40;15.00;;;;;;;;;;5065622;28;20028;-88
2022/01/01 02:54:35;;;;;;;32.13;15.20;;;;;;;;;;5062942;28;20020;-86
2022/01/01 02:57:01;;;;;;;31.10;15.32;;;;;;;;;;5067111;28;20024;-87
2022/01/01 02:59:26;;;;;;;28.05;13.98;;;;;;;;;;5069187;28;20051;-87
2022/01/01 03:01:51;;;;;;;30.17;15.02;;;;;;;;;;5061247;28;20468;-85
2022/01/01 03:04:16;;;;;;;28.23;14.43;;;;;;;;;;5063135;28;20024;-87
2022/01/01 03:06:42;;;;;;;32.10;13.98;;;;;;;;;;5064767;28;20380;-87
2022/01/01 03:09:07;;;;;;;31.75;14.25;;;;;;;;;;5067199;28;20025;-86
2022/01/01 03:11:33;;;;;;;30.98;13.80;;;;;;;;;;5063778;28;20041;-85
2022/01/01 03:13:58;;;;;;;28.70;13.95;;;;;;;;;;5062137;28;20063;-86
2022/01/01 03:16:23;;;;;;;30.90;14.77;;;;;;;;;;5060102;28;20400;-85
2022/01/01 03:18:49;;;;;;;23.60;12.82;;;;;;;;;;5061192;28;20068;-85
2022/01/01 03:21:14;;;;;;;27.73;12.75;;;;;;;;;;5062662;28;20054;-86
2022/01/01 03:23:40;;;;;;;27.40;11.60;;;;;;;;;;5062133;28;20028;-85
2022/01/01 03:26:05;;;;;;;25.85;11.55;;;;;;;;;;5064902;28;20025;-85
2022/01/01 03:28:30;;;;;;;29.60;12.13;;;;;;;;;;5062680;28;20392;-85
2022/01/01 03:30:56;;;;;;;26.65;12.60;;;;;;;;;;5063978;28;20024;-85
2022/01/01 03:33:21;;;;;;;26.60;12.48;;;;;;;;;;5065243;28;20024;-86
2022/01/01 03:35:48;;;;;;;28.80;11.95;;;;;;;;;;5063246;28;20055;-85
2022/01/01 03:38:14;;;;;;;24.00;11.60;;;;;;;;;;5064727;28;20480;-88
2022/01/01 03:40:39;;;;;;;24.23;10.98;;;;;;;;;;5059646;28;20025;-85
2022/01/01 03:43:05;;;;;;;25.63;11.68;;;;;;;;;;5061478;28;20032;-85
2022/01/01 03:45:30;;;;;;;23.13;11.18;;;;;;;;;;5068080;28;20028;-85
2022/01/01 03:47:56;;;;;;;23.10;10.77;;;;;;;;;;5062469;28;20028;-87
2022/01/01 03:50:21;;;;;;;23.48;10.70;;;;;;;;;;5063509;28;20031;-87
2022/01/01 03:52:47;;;;;;;19.80;10.45;;;;;;;;;;5063677;28;20028;-85
2022/01/01 03:55:14;;;;;;;20.55;10.70;;;;;;;;;;5066099;28;20024;-86
2022/01/01 03:57:40;;;;;;;18.55;9.88;;;;;;;;;;5067285;28;20028;-87
2022/01/01 04:00:11;;;;;;;20.52;10.23;;;;;;;;;;5064463;28;20054;-88
2022/01/01 04:02:36;;;;;;;22.63;11.65;;;;;;;;;;5062294;28;20032;-85
2022/01/01 04:05:03;;;;;;;22.65;10.73;;;;;;;;;;5065774;28;20024;-87
2022/01/01 04:07:29;;;;;;;23.52;10.32;;;;;;;;;;5068169;28;20028;-85
2022/01/01 04:09:54;;;;;;;20.65;9.63;;;;;;;;;;5063751;28;20044;-87
2022/01/01 04:12:20;;;;;;;18.27;9.43;;;;;;;;;;5069392;28;20056;-87
2022/01/01 04:14:48;;;;;;;17.75;9.23;;;;;;;;;;5066950;28;20465;-85
2022/01/01 04:17:13;;;;;;;19.40;9.65;;;;;;;;;;5058706;28;20041;-87
2022/01/01 04:19:41;;;;;;;19.02;9.63;;;;;;;;;;5066335;28;20539;-88
2022/01/01 04:22:08;;;;;;;22.70;9.35;;;;;;;;;;5067877;28;20050;-85
2022/01/01 04:24:34;;;;;;;20.38;10.05;;;;;;;;;;5064539;28;20452;-88
2022/01/01 04:26:59;;;;;;;19.42;9.52;;;;;;;;;;5063914;28;20067;-87
2022/01/01 04:29:24;;;;;;;18.73;9.50;;;;;;;;;;5065260;28;20468;-85
2022/01/01 04:31:50;;;;;;;15.70;8.70;;;;;;;;;;5063484;28;20036;-88
2022/01/01 04:34:15;;;;;;;19.65;9.15;;;;;;;;;;5063103;28;20032;-85
2022/01/01 04:36:48;;;;;;;19.85;9.15;;;;;;;;;;5065440;28;20032;-86
2022/01/01 04:39:14;;;;;;;18.00;8.55;;;;;;;;;;5062157;28;20028;-85
2022/01/01 04:41:41;;;;;;;19.83;8.60;;;;;;;;;;5063263;28;20021;-85
2022/01/01 04:44:06;;;;;;;18.25;8.60;;;;;;;;;;5065348;28;20539;-87
2022/01/01 04:46:31;;;;;;;15.73;8.73;;;;;;;;;;5067323;28;20115;-85
2022/01/01 04:48:57;;;;;;;15.13;8.05;;;;;;;;;;5064290;28;20127;-87
2022/01/01 04:51:22;;;;;;;16.83;8.45;;;;;;;;;;5065186;28;20399;-85
2022/01/01 04:53:48;;;;;;;17.63;8.25;;;;;;;;;;5064151;28;20024;-88
2022/01/01 04:56:18;;;;;;;18.08;8.57;;;;;;;;;;5068357;28;20440;-87
2022/01/01 04:58:44;;;;;;;19.75;8.32;;;;;;;;;;5066891;28;20111;-88
2022/01/01 05:01:10;;;;;;;14.77;7.47;;;;;;;;;;5066170;28;20535;-87
2022/01/01 05:03:35;;;;;;;20.73;8.38;;;;;;;;;;5068606;28;20101;-85
2022/01/01 05:06:00;;;;;;;18.42;8.07;;;;;;;;;;5069347;28;20020;-85
2022/01/01 05:08:26;;;;;;;15.93;8.10;;;;;;;;;;5065327;28;20029;-86
2022/01/01 05:10:51;;;;;;;18.23;8.25;;;;;;;;;;5067256;28;20107;-87
2022/01/01 05:13:19;;;;;;;14.48;7.30;;;;;;;;;;5066571;28;20100;-88
2022/01/01 05:15:44;;;;;;;15.45;7.45;;;;;;;;;;5065304;28;20032;-85
2022/01/01 05:18:10;;;;;;;19.67;8.43;;;;;;;;;;5068192;28;20404;-87
2022/01/01 05:20:35;;;;;;;13.95;7.72;;;;;;;;;;5066901;28;20033;-87
2022/01/01 05:23:01;;;;;;;18.15;7.32;;;;;;;;;;5067801;28;20441;-88
2022/01/01 05:25:26;;;;;;;18.52;8.00;;;;;;;;;;5067215;28;20370;-85
2022/01/01 05:27:51;;;;;;;15.18;7.38;;;;;;;;;;5068535;28;20484;-88
2022/01/01 05:30:17;;;;;;;16.25;7.07;;;;;;;;;;5068652;28;20104;-87
2022/01/01 05:32:42;;;;;;;14.23;6.97;;;;;;;;;;5070520;28;20099;-85
2022/01/01 05:35:07;;;;;;;14.35;7.30;;;;;;;;;;5070184;28;20033;-85
2022/01/01 05:37:33;;;;;;;15.50;6.88;;;;;;;;;;5069502;28;20051;-85
2022/01/01 05:39:58;;;;;;;15.65;6.90;;;;;;;;;;5066023;28;20028;-85
2022/01/01 05:42:24;;;;;;;11.90;6.18;;;;;;;;;;5068108;28;20052;-87
2022/01/01 05:44:49;;;;;;;16.70;6.57;;;;;;;;;;5062672;28;20107;-86
2022/01/01 05:47:15;;;;;;;15.57;6.30;;;;;;;;;;5068267;28;20027;-88
2022/01/01 05:49:40;;;;;;;18.10;5.80;;;;;;;;;;5067768;28;20060;-85
2022/01/01 05:52:06;;;;;;;14.48;6.18;;;;;;;;;;5069545;28;20051;-88
2022/01/01 05:54:31;;;;;;;13.82;5.40;;;;;;;;;;5068112;28;20455;-87
2022/01/01 05:56:56;;;;;;;13.85;5.45;;;;;;;;;;5063428;28;20672;-87
2022/01/01 05:59:22;;;;;;;10.88;5.40;;;;;;;;;;5062506;28;20082;-85
2022/01/01 06:01:47;;;;;;;13.93;5.80;;;;;;;;;;5064263;28;20075;-85
2022/01/01 06:04:12;;;;;;;14.32;5.50;;;;;;;;;;5068228;28;20028;-88
2022/01/01 06:06:38;;;;;;;12.55;5.15;;;;;;;;;;5063728;28;20048;-85
2022/01/01 06:09:03;;;;;;;13.25;5.68;;;;;;;;;;5067803;28;20025;-85
2022/01/01 06:11:28;;;;;;;13.27;5.15;;;;;;;;;;5063502;28;20025;-86
2022/01/01 06:13:54;;;;;;;11.95;5.30;;;;;;;;;;5063427;28;20531;-85
2022/01/01 06:16:19;;;;;;;15.60;5.50;;;;;;;;;;5070369;28;20028;-87
2022/01/01 06:18:44;;;;;;;9.38;4.65;;;;;;;;;;5069302;28;20075;-85
2022/01/01 06:21:10;;;;;;;11.05;5.40;;;;;;;;;;5065060;28;20020;-85
2022/01/01 06:23:37;;;;;;;10.98;4.85;;;;;;;;;;5068477;28;20036;-87
2022/01/01 06:26:03;;;;;;;12.52;5.13;;;;;;;;;;5076517;28;20035;-85
2022/01/01 06:28:29;;;;;;;14.77;5.10;;;;;;;;;;5070761;28;20047;-86
2022/01/01 06:30:54;;;;;;;13.52;5.40;;;;;;;;;;5061817;28;20521;-88
2022/01/01 06:33:21;;;;;;;12.32;5.55;;;;;;;;;;5066909;28;20028;-86
2022/01/01 06:35:47;;;;;;;10.35;5.35;;;;;;;;;;5068139;28;20036;-85
2022/01/01 06:38:12;;;;;;;12.93;5.18;;;;;;;;;;5065973;28;20812;-86
2022/01/01 06:40:39;;;;;;;13.07;5.60;;;;;;;;;;5060473;28;20024;-86
2022/01/01 06:43:06;;;;;;;13.80;5.72;;;;;;;;;;5068244;28;20107;-87
2022/01/01 06:45:31;;;;;;;13.90;5.75;;;;;;;;;;5065182;28;20041;-85
2022/01/01 06:47:57;;;;;;;13.25;5.50;;;;;;;;;;5063800;28;20024;-85
2022/01/01 06:50:22;;;;;;;12.40;5.50;;;;;;;;;;5065226;28;20109;-87
2022/01/01 06:52:47;;;;;;;12.73;5.55;;;;;;;;;;5063195;28;20024;-86
2022/01/01 06:55:13;;;;;;;9.82;5.47;;;;;;;;;;5063900;28;20476;-87
2022/01/01 06:57:40;;;;;;;11.13;4.85;;;;;;;;;;5065880;28;20021;-85
2022/01/01 07:00:06;;;;;;;12.57;5.15;;;;;;;;;;5066694;28;20067;-87
2022/01/01 07:02:37;;;;;;;12.27;5.35;;;;;;;;;;5081521;28;20039;-85
2022/01/01 07:05:03;;;;;;;12.68;5.10;;;;;;;;;;5067157;28;20108;-85
2022/01/01 07:07:28;;;;;;;12.07;4.55;;;;;;;;;;5059173;28;20485;-88
2022/01/01 07:09:53;;;;;;;12.55;4.80;;;;;;;;;;5069035;28;20115;-87
2022/01/01 07:12:18;;;;;;;12.18;4.93;;;;;;;;;;5061536;28;20028;-87
2022/01/01 07:14:44;;;;;;;14.77;5.60;;;;;;;;;;5067472;28;20111;-87
2022/01/01 07:17:09;;;;;;;11.77;4.85;;;;;;;;;;5060736;28;20519;-87
2022/01/01 07:19:34;;;;;;;14.23;5.00;;;;;;;;;;5067023;28;20036;-87
2022/01/01 07:22:00;;;;;;;13.50;5.82;;;;;;;;;;5064894;28;20095;-88
2022/01/01 07:24:26;;;;;;;11.60;4.78;;;;;;;;;;5066094;28;20028;-85
2022/01/01 07:26:51;;;;;;;12.27;5.20;;;;;;;;;;5064675;28;20028;-84
2022/01/01 07:29:17;;;;;;;11.65;4.80;;;;;;;;;;5067756;28;20024;-86
2022/01/01 07:31:42;;;;;;;11.25;5.25;;;;;;;;;;5060742;28;20060;-87
2022/01/01 07:34:07;;;;;;;8.82;4.60;;;;;;;;;;5068964;28;20024;-85
2022/01/01 07:36:33;;;;;;;15.32;4.93;;;;;;;;;;5072548;28;20028;-88
2022/01/01 07:38:58;;;;;;;13.68;4.70;;;;;;;;;;5067315;28;20039;-88
2022/01/01 07:41:23;;;;;;;10.18;5.03;;;;;;;;;;5064472;28;20051;-87
2022/01/01 07:43:49;;;;;;;8.95;4.45;;;;;;;;;;5063752;28;20032;-87
2022/01/01 07:46:14;;;;;;;13.63;5.05;;;;;;;;;;5059413;28;20028;-87
2022/01/01 07:48:39;;;;;;;11.00;4.63;;;;;;;;;;5060812;28;20021;-87
2022/01/01 07:51:05;;;;;;;13.18;5.07;;;;;;;;;;5066421;28;20391;-85
2022/01/01 07:53:30;;;;;;;11.30;5.18;;;;;;;;;;5062169;28;20028;-86
2022/01/01 07:55:55;;;;;;;11.52;4.35;;;;;;;;;;5063646;28;20490;-85
2022/01/01 07:58:21;;;;;;;12.55;4.68;;;;;;;;;;5061456;28;20021;-87
2022/01/01 08:00:46;;;;;;;9.02;4.00;;;;;;;;;;5061463;28;20024;-85
2022/01/01 08:03:11;;;;;;;9.38;4.32;;;;;;;;;;5063362;28;20033;-87
2022/01/01 08:05:38;;;;;;;13.45;4.13;;;;;;;;;;5061670;28;20016;-87
2022/01/01 08:08:03;;;;;;;13.43;4.90;;;;;;;;;;5062680;28;20033;-85
2022/01/01 08:10:30;;;;;;;8.82;4.28;;;;;;;;;;5065783;28;20030;-86
2022/01/01 08:12:55;;;;;;;9.07;4.30;;;;;;;;;;5067716;28;20094;-86
2022/01/01 08:15:21;;;;;;;11.50;4.18;;;;;;;;;;5071434;28;20028;-85
2022/01/01 08:17:46;;;;;;;11.32;4.45;;;;;;;;;;5068416;28;20036;-87
2022/01/01 08:20:12;;;;;;;10.50;4.90;;;;;;;;;;5073173;28;20028;-87
2022/01/01 08:22:38;;;;;;;12.55;3.95;;;;;;;;;;5071807;28;20028;-87
2022/01/01 08:25:04;;;;;;;11.77;4.53;;;;;;;;;;5070650;28;20028;-85
2022/01/01 08:27:29;;;;;;;9.25;4.40;;;;;;;;;;5066403;28;20111;-86
2022/01/01 08:29:54;;;;;;;13.38;4.20;;;;;;;;;;5073748;28;20031;-87
2022/01/01 08:32:20;;;;;;;12.05;4.40;;;;;;;;;;5077603;28;20040;-86
2022/01/01 08:34:45;;;;;;;8.65;4.53;;;;;;;;;;5069676;28;20028;-87
2022/01/01 08:37:10;;;;;;;12.05;4.43;;;;;;;;;;5072839;28;20384;-87
2022/01/01 08:39:37;;;;;;;10.25;4.32;;;;;;;;;;5071854;28;20032;-87
2022/01/01 08:42:03;;;;;;;12.48;4.15;;;;;;;;;;5065643;28;20116;-87
2022/01/01 08:44:28;;;;;;;14.38;4.68;;;;;;;;;;5067884;28;20170;-87
2022/01/01 08:46:54;;;;;;;10.07;4.50;;;;;;;;;;5071582;28;20036;-85
2022/01/01 08:49:19;;;;;;;10.98;4.35;;;;;;;;;;5055553;28;20414;-88
2022/01/01 08:51:45;;;;;;;10.32;4.20;;;;;;;;;;5071317;28;20086;-85
2022/01/01 08:54:12;;;;;;;10.32;4.18;;;;;;;;;;5074602;28;20074;-86
2022/01/01 08:56:38;;;;;;;9.40;4.55;;;;;;;;;;5073070;28;20122;-85
2022/01/01 08:59:03;;;;;;;11.88;4.05;;;;;;;;;;5069812;28;20102;-85
2022/01/01 09:01:29;;;;;;;9.38;4.50;;;;;;;;;;5074744;28;20059;-87
2022/01/01 09:03:55;;;;;;;10.48;4.13;;;;;;;;;;5066321;28;20035;-85
2022/01/01 09:06:20;;;;;;;9.27;4.78;;;;;;;;;;5066030;28;20423;-85
2022/01/01 09:08:46;;;;;;;11.02;4.22;;;;;;;;;;5077653;28;20028;-86
2022/01/01 09:11:13;;;;;;;11.35;5.18;;;;;;;;;;5066855;28;20090;-85
2022/01/01 09:13:42;;;;;;;11.77;4.88;;;;;;;;;;5064254;28;20036;-85
2022/01/01 09:16:12;;;;;;;9.48;4.50;;;;;;;;;;5070612;28;20107;-88
2022/01/01 09:18:42;;;;;;;12.25;4.65;;;;;;;;;;5064876;28;20079;-85
2022/01/01 09:21:09;;;;;;;12.73;4.78;;;;;;;;;;5069555;28;20021;-85
2022/01/01 09:23:35;;;;;;;10.10;4.88;;;;;;;;;;5071562;28;20028;-85
2022/01/01 09:26:03;;;;;;;14.50;6.68;;;;;;;;;;5068168;28;20032;-85
2022/01/01 09:28:30;;;;;;;11.38;5.65;;;;;;;;;;5066997;28;20063;-87
2022/01/01 09:30:56;;;;;;;10.07;5.07;;;;;;;;;;5073884;28;20412;-87
2022/01/01 09:33:22;;;;;;;11.73;5.22;;;;;;;;;;5070652;28;20383;-85
2022/01/01 09:35:47;;;;;;;14.10;5.28;;;;;;;;;;5077697;28;20015;-88
2022/01/01 09:38:13;;;;;;;14.20;5.75;;;;;;;;;;5071121;28;20020;-88
2022/01/01 09:40:38;;;;;;;13.75;5.03;;;;;;;;;;5078868;28;20023;-85
2022/01/01 09:43:05;;;;;;;11.82;5.35;;;;;;;;;;5078919;28;20024;-87
2022/01/01 09:45:31;;;;;;;11.13;5.20;;;;;;;;;;5076350;28;20047;-85
2022/01/01 09:47:59;;;;;;;10.75;5.35;;;;;;;;;;5071420;28;20043;-85
2022/01/01 09:50:25;;;;;;;9.60;5.38;;;;;;;;;;5074420;28;20058;-85
2022/01/01 09:52:50;;;;;;;12.10;5.50;;;;;;;;;;5065386;28;20048;-85
2022/01/01 09:55:15;;;;;;;13.05;6.13;;;;;;;;;;5072951;28;20032;-87
2022/01/01 09:57:41;;;;;;;11.95;5.70;;;;;;;;;;5072482;28;20103;-86
2022/01/01 10:00:07;;;;;;;12.65;5.95;;;;;;;;;;5067481;28;20035;-85
2022/01/01 10:02:41;;;;;;;10.63;5.45;;;;;;;;;;5073886;28;20024;-87
2022/01/01 10:05:07;;;;;;;14.32;6.22;;;;;;;;;;5068416;28;20122;-85
2022/01/01 10:07:32;;;;;;;14.07;5.78;;;;;;;;;;5065254;28;20119;-85
2022/01/01 10:10:15;;;;;;;14.05;6.03;;;;;;;;;;5066076;28;20056;-85
2022/01/01 10:12:43;;;;;;;11.43;5.78;;;;;;;;;;5063084;28;20024;-85
2022/01/01 10:15:08;;;;;;;14.23;6.35;;;;;;;;;;5063000;28;20115;-87
2022/01/01 10:17:34;;;;;;;11.20;5.38;;;;;;;;;;5068044;28;20127;-84
2022/01/01 10:19:59;;;;;;;11.85;5.72;;;;;;;;;;5061492;28;20031;-87
2022/01/01 10:22:25;;;;;;;12.38;5.85;;;;;;;;;;5066560;28;20078;-87
2022/01/01 10:27:59;;;;;;;10.05;5.72;;;;;;;;;;5066906;28;20031;-85
2022/01/01 10:30:31;;;;;;;11.95;5.82;;;;;;;;;;5056962;28;20028;-87
2022/01/01 10:33:07;;;;;;;17.38;6.30;;;;;;;;;;5073608;28;20550;-87
2022/01/01 10:35:40;;;;;;;13.57;6.57;;;;;;;;;;5078883;28;20128;-88
2022/01/01 10:38:15;;;;;;;;;;;;;;;;;;5063266;28;20044;-87
2022/01/01 10:40:41;;;;;;;10.73;5.40;;;;;;;;;;5072678;28;19995;-87
2022/01/01 10:43:07;;;;;;;11.23;5.93;;;;;;;;;;5070648;28;20074;-85
2022/01/01 10:45:36;;;;;;;11.52;5.82;;;;;;;;;;5072307;28;20024;-85
2022/01/01 10:48:40;;;;;;;10.55;5.35;;;;;;;;;;5076299;28;20035;-85
2022/01/01 10:51:07;;;;;;;12.35;5.70;;;;;;;;;;5060142;28;20067;-87
2022/01/01 10:53:34;;;;;;;13.93;6.07;;;;;;;;;;5067108;28;20034;-88
2022/01/01 10:56:22;;;;;;;12.10;5.18;;;;;;;;;;5066495;28;20032;-86
2022/01/01 10:58:59;;;;;;;10.95;5.57;;;;;;;;;;5064187;28;20035;-86
2022/01/01 11:01:25;;;;;;;11.70;5.57;;;;;;;;;;5062596;28;20443;-85
2022/01/01 11:03:54;;;;;;;11.63;6.00;;;;;;;;;;5060255;28;20029;-85
2022/01/01 11:06:21;;;;;;;11.95;6.40;;;;;;;;;;5061792;28;20033;-87
2022/01/01 11:08:47;;;;;;;13.27;5.63;;;;;;;;;;5069079;28;20090;-86
2022/01/01 11:11:13;;;;;;;11.50;5.28;;;;;;;;;;5063216;28;20052;-86
2022/01/01 11:13:40;;;;;;;13.55;5.65;;;;;;;;;;5053854;28;20107;-88
2022/01/01 11:16:07;;;;;;;11.95;5.60;;;;;;;;;;5063330;28;20028;-86
2022/01/01 11:18:34;;;;;;;10.43;5.80;;;;;;;;;;5065862;28;20566;-88
2022/01/01 11:21:04;;;;;;;11.75;5.47;;;;;;;;;;5066207;28;20115;-87
2022/01/01 11:23:31;;;;;;;11.77;5.47;;;;;;;;;;5059738;28;20052;-88
2022/01/01 11:25:57;;;;;;;10.52;5.38;;;;;;;;;;5067748;28;20027;-87
2022/01/01 11:28:25;;;;;;;10.50;5.78;;;;;;;;;;5058338;28;20365;-85
2022/01/01 11:30:57;;;;;;;9.10;5.65;;;;;;;;;;5063540;28;20051;-87
2022/01/01 11:33:35;;;;;;;8.65;4.88;;;;;;;;;;5059953;28;20440;-88
2022/01/01 11:36:02;;;;;;;10.55;5.30;;;;;;;;;;5082632;28;20059;-87
2022/01/01 11:38:31;;;;;;;8.98;5.15;;;;;;;;;;5065821;28;20027;-88
2022/01/01 11:40:59;;;;;;;13.32;5.45;;;;;;;;;;5072547;28;20024;-89
2022/01/01 11:43:43;;;;;;;10.50;5.97;;;;;;;;;;5062337;28;20650;-85
2022/01/01 11:46:31;;;;;;;8.88;5.95;;;;;;;;;;5068885;28;20546;-90
2022/01/01 11:48:58;;;;;;;12.90;5.47;;;;;;;;;;5064889;28;20033;-86
2022/01/01 11:51:35;;;;;;;10.10;5.50;;;;;;;;;;5068188;28;20063;-88
2022/01/01 11:54:21;;;;;;;12.45;5.70;;;;;;;;;;5064212;28;20028;-87
2022/01/01 11:56:50;;;;;;;10.68;5.47;;;;;;;;;;5078005;28;20115;-87
2022/01/01 11:59:29;;;;;;;12.82;5.63;;;;;;;;;;5065986;28;20089;-86
2022/01/01 12:02:22;;;;;;;10.70;5.47;;;;;;;;;;5062327;28;20032;-87
2022/01/01 12:04:53;;;;;;;8.55;5.28;;;;;;;;;;5052353;28;20048;-86
2022/01/01 12:07:19;;;;;;;10.85;5.47;;;;;;;;;;5050257;23;20061;-88
2022/01/01 12:10:11;;;;;;;8.55;5.22;;;;;;;;;;5026130;28;20649;-85
2022/01/01 12:12:56;;;;;;;9.90;5.03;;;;;;;;;;5023391;28;20120;-87
2022/01/01 12:15:24;;;;;;;8.65;4.95;;;;;;;;;;5041367;28;20033;-85
2022/01/01 12:18:03;;;;;;;9.75;5.32;;;;;;;;;;5039592;28;20022;-88
2022/01/01 12:20:33;;;;;;;9.43;5.18;;;;;;;;;;5031105;28;20029;-87
2022/01/01 12:23:02;;;;;;;9.50;4.75;;;;;;;;;;5025138;28;20104;-85
2022/01/01 12:25:30;;;;;;;9.55;4.82;;;;;;;;;;5025080;28;20025;-87
2022/01/01 12:28:05;;;;;;;8.82;4.97;;;;;;;;;;5028583;28;20490;-88
2022/01/01 12:30:41;;;;;;;9.48;5.03;;;;;;;;;;5031721;28;20542;-88
2022/01/01 12:33:08;;;;;;;8.63;4.07;;;;;;;;;;5025755;28;20367;-87
2022/01/01 12:35:41;;;;;;;8.07;4.72;;;;;;;;;;5030796;28;20032;-85
2022/01/01 12:38:08;;;;;;;7.45;4.85;;;;;;;;;;5028079;28;20076;-87
2022/01/01 12:40:34;;;;;;;8.93;4.88;;;;;;;;;;5027820;28;20025;-87
2022/01/01 12:43:10;;;;;;;8.30;4.65;;;;;;;;;;5027476;28;20041;-85
2022/01/01 12:45:38;;;;;;;9.93;5.05;;;;;;;;;;5044155;28;20057;-87
2022/01/01 12:48:04;;;;;;;9.13;4.10;;;;;;;;;;5027282;28;20065;-85
2022/01/01 12:50:30;;;;;;;8.85;4.32;;;;;;;;;;5025490;28;20033;-85
2022/01/01 12:52:57;;;;;;;7.45;3.83;;;;;;;;;;5025302;28;20044;-85
2022/01/01 12:55:24;;;;;;;7.80;4.32;;;;;;;;;;5025786;28;20021;-87
2022/01/01 12:57:49;;;;;;;8.63;3.78;;;;;;;;;;5026594;28;20029;-85
2022/01/01 13:00:24;;;;;;;8.80;4.15;;;;;;;;;;5027184;28;20021;-88
2022/01/01 13:02:55;;;;;;;7.95;4.03;;;;;;;;;;5040392;28;20022;-89
2022/01/01 13:05:23;;;;;;;9.02;4.40;;;;;;;;;;5029259;28;20311;-85
2022/01/01 13:07:50;;;;;;;11.93;4.70;;;;;;;;;;5012148;28;20042;-84
2022/01/01 13:10:15;;;;;;;7.13;4.07;;;;;;;;;;5028860;28;20043;-85
2022/01/01 13:12:41;;;;;;;8.30;4.30;;;;;;;;;;5007934;28;20030;-89
2022/01/01 13:15:07;;;;;;;9.07;4.20;;;;;;;;;;5012392;28;20029;-86
2022/01/01 13:17:32;;;;;;;8.85;4.70;;;;;;;;;;5013155;28;20116;-87
2022/01/01 13:19:57;;;;;;;8.75;4.50;;;;;;;;;;5024240;28;20026;-88
2022/01/01 13:22:34;;;;;;;7.25;4.40;;;;;;;;;;5012668;28;20052;-88
2022/01/01 13:24:59;;;;;;;7.70;3.78;;;;;;;;;;5012740;28;20050;-85
2022/01/01 13:27:27;;;;;;;7.53;3.97;;;;;;;;;;5012644;28;20060;-86
2022/01/01 13:29:53;;;;;;;8.57;3.60;;;;;;;;;;5012532;28;20022;-86
2022/01/01 13:32:19;;;;;;;7.70;4.32;;;;;;;;;;5012893;28;20033;-89
2022/01/01 13:34:49;;;;;;;8.07;3.80;;;;;;;;;;5013515;28;20018;-84
2022/01/01 13:37:21;;;;;;;7.75;4.47;;;;;;;;;;5012605;28;20032;-85
2022/01/01 13:39:46;;;;;;;6.38;3.40;;;;;;;;;;5004024;28;20036;-86
2022/01/01 13:42:17;;;;;;;6.30;3.80;;;;;;;;;;5015122;28;20092;-87
2022/01/01 13:44:43;;;;;;;6.35;3.85;;;;;;;;;;5015125;28;20026;-85
2022/01/01 13:47:19;;;;;;;6.30;3.58;;;;;;;;;;5030040;28;20022;-88
2022/01/01 13:49:58;;;;;;;7.63;3.83;;;;;;;;;;5013405;28;20030;-85
2022/01/01 13:52:26;;;;;;;7.45;3.90;;;;;;;;;;5027386;28;20025;-88
2022/01/01 13:55:07;;;;;;;6.85;3.67;;;;;;;;;;5013666;28;20034;-88
2022/01/01 13:57:37;;;;;;;6.88;4.00;;;;;;;;;;5013446;28;20017;-85
2022/01/01 14:00:04;;;;;;;7.35;3.80;;;;;;;;;;5013335;28;20022;-88
2022/01/01 14:02:31;;;;;;;6.95;3.70;;;;;;;;;;5013671;28;20025;-85
2022/01/01 14:05:00;;;;;;;7.57;3.72;;;;;;;;;;5014709;28;20600;-88
2022/01/01 14:07:25;;;;;;;5.30;3.55;;;;;;;;;;5028083;28;20045;-87
2022/01/01 14:10:05;;;;;;;8.35;3.97;;;;;;;;;;5013400;28;20060;-88
2022/01/01 14:12:40;;;;;;;8.93;3.83;;;;;;;;;;5013188;28;20509;-85
2022/01/01 14:15:09;;;;;;;7.32;3.80;;;;;;;;;;5029577;28;20116;-85
2022/01/01 14:18:07;;;;;;;7.70;4.10;;;;;;;;;;5010985;28;20076;-84
2022/01/01 14:20:52;;;;;;;6.57;3.42;;;;;;;;;;4995270;28;20482;-88
2022/01/01 14:23:37;;;;;;;7.10;3.42;;;;;;;;;;5029619;28;20438;-85
2022/01/01 14:26:05;;;;;;;8.38;3.58;;;;;;;;;;5003700;28;20100;-85
2022/01/01 14:28:31;;;;;;;7.78;3.33;;;;;;;;;;5013029;28;20116;-88
2022/01/01 14:30:59;;;;;;;8.30;3.80;;;;;;;;;;5013149;28;20491;-87
2022/01/01 14:33:25;;;;;;;7.43;3.75;;;;;;;;;;5028731;28;20500;-85
2022/01/01 14:35:58;;;;;;;5.38;3.30;;;;;;;;;;5012789;28;20022;-88
2022/01/01 14:38:25;;;;;;;8.40;3.63;;;;;;;;;;5012410;28;20496;-89
2022/01/01 14:40:50;;;;;;;5.63;3.22;;;;;;;;;;5012517;28;20030;-85
2022/01/01 14:43:15;;;;;;;8.05;3.95;;;;;;;;;;5017573;28;20026;-85
2022/01/01 14:45:42;;;;;;;7.65;3.08;;;;;;;;;;5012712;28;20025;-88
2022/01/01 14:48:25;;;;;;;7.38;3.70;;;;;;;;;;5012123;28;20022;-85